sensor_id;sensor_type;location;lat;lon;timestamp;temperature;humidity
34572;DHT22;20808;48.974;8.452;2023-10-09T00:00:15;14.40;99.90
34572;DHT22;20808;48.974;8.452;2023-10-09T00:00:48;14.40;99.90
34572;DHT22;20808;48.974;8.452;2023-10-09T00:01:11;14.40;99.90
34572;DHT22;20808;48.974;8.452;2023-10-09T00:01:28;14.40;99.90
34572;DHT22;20808;48.974;8.452;2023-10-09T00:01:47;14.40;99.50
34572;DHT22;20808;48.974;8.452;2023-10-09T00:02:02;14.20;98.30
34572;DHT22;20808;48.974;8.452;2023-10-09T00:02:21;14.40;96.50
34572;DHT22;20808;48.974;8.452;2023-10-09T00:02:38;14.20;94.90
34572;DHT22;20808;48.974;8.452;2023-10-09T00:02:58;14.40;93.60
34572;DHT22;20808;48.974;8.452;2023-10-09T00:03:17;14.20;98.20
34572;DHT22;20808;48.974;8.452;2023-10-09T00:03:33;14.20;96.30
34572;DHT22;20808;48.974;8.452;2023-10-09T00:03:52;14.10;98.70
34572;DHT22;20808;48.974;8.452;2023-10-09T00:04:10;14.20;97.30
34572;DHT22;20808;48.974;8.452;2023-10-09T00:04:27;14.20;98.80
34572;DHT22;20808;48.974;8.452;2023-10-09T00:04:44;14.30;99.90
34572;DHT22;20808;48.974;8.452;2023-10-09T00:05:00;14.40;99.90
34572;DHT22;20808;48.974;8.452;2023-10-09T00:05:18;14.30;99.90
34572;DHT22;20808;48.974;8.452;2023-10-09T00:05:43;14.40;99.90
34572;DHT22;20808;48.974;8.452;2023-10-09T00:06:01;14.00;99.90
34572;DHT22;20808;48.974;8.452;2023-10-09T00:06:20;14.10;99.90
34572;DHT22;20808;48.974;8.452;2023-10-09T00:06:45;14.00;99.90
34572;DHT22;20808;48.974;8.452;2023-10-09T00:07:02;14.10;99.90
34572;DHT22;20808;48.974;8.452;2023-10-09T00:07:18;14.10;99.90
34572;DHT22;20808;48.974;8.452;2023-10-09T00:07:35;13.90;99.90
34572;DHT22;20808;48.974;8.452;2023-10-09T00:07:52;14.10;99.90
34572;DHT22;20808;48.974;8.452;2023-10-09T00:08:11;13.80;99.90
34572;DHT22;20808;48.974;8.452;2023-10-09T00:08:31;13.70;99.90
34572;DHT22;20808;48.974;8.452;2023-10-09T00:08:47;13.70;99.90
34572;DHT22;20808;48.974;8.452;2023-10-09T00:09:06;13.90;99.90
34572;DHT22;20808;48.974;8.452;2023-10-09T00:09:34;13.80;99.90
34572;DHT22;20808;48.974;8.452;2023-10-09T00:10:01;13.50;99.90
34572;DHT22;20808;48.974;8.452;2023-10-09T00:10:27;13.40;99.90
34572;DHT22;20808;48.974;8.452;2023-10-09T00:11:01;13.80;99.90
34572;DHT22;20808;48.974;8.452;2023-10-09T00:11:29;13.40;99.90
34572;DHT22;20808;48.974;8.452;2023-10-09T00:11:53;13.20;99.90
34572;DHT22;20808;48.974;8.452;2023-10-09T00:12:15;13.40;1.00
34572;DHT22;20808;48.974;8.452;2023-10-09T00:12:31;13.40;1.00
34572;DHT22;20808;48.974;8.452;2023-10-09T00:12:48;13.40;1.00
34572;DHT22;20808;48.974;8.452;2023-10-09T00:13:04;13.50;1.00
34572;DHT22;20808;48.974;8.452;2023-10-09T00:13:24;13.50;1.00
34572;DHT22;20808;48.974;8.452;2023-10-09T00:13:45;13.40;1.00
34572;DHT22;20808;48.974;8.452;2023-10-09T00:14:08;13.20;1.00
34572;DHT22;20808;48.974;8.452;2023-10-09T00:14:24;13.40;1.00
34572;DHT22;20808;48.974;8.452;2023-10-09T00:14:40;13.30;1.00
34572;DHT22;20808;48.974;8.452;2023-10-09T00:14:56;13.10;1.00
34572;DHT22;20808;48.974;8.452;2023-10-09T00:15:15;13.30;1.00
34572;DHT22;20808;48.974;8.452;2023-10-09T00:15:33;13.20;1.00
34572;DHT22;20808;48.974;8.452;2023-10-09T00:15:49;13.20;1.00
34572;DHT22;20808;48.974;8.452;2023-10-09T00:16:12;12.90;1.00
34572;DHT22;20808;48.974;8.452;2023-10-09T00:16:31;12.90;1.00
34572;DHT22;20808;48.974;8.452;2023-10-09T00:16:50;13.10;1.00
34572;DHT22;20808;48.974;8.452;2023-10-09T00:17:11;12.90;60.80
34572;DHT22;20808;48.974;8.452;2023-10-09T00:17:33;12.90;99.90
34572;DHT22;20808;48.974;8.452;2023-10-09T00:17:49;12.80;99.90
34572;DHT22;20808;48.974;8.452;2023-10-09T00:18:07;12.90;99.90
34572;DHT22;20808;48.974;8.452;2023-10-09T00:18:27;12.80;99.90
34572;DHT22;20808;48.974;8.452;2023-10-09T00:18:49;12.70;99.90
34572;DHT22;20808;48.974;8.452;2023-10-09T00:19:06;12.90;1.00
34572;DHT22;20808;48.974;8.452;2023-10-09T00:19:31;12.70;1.00
34572;DHT22;20808;48.974;8.452;2023-10-09T00:19:49;12.80;1.00
34572;DHT22;20808;48.974;8.452;2023-10-09T00:20:07;12.80;1.00
34572;DHT22;20808;48.974;8.452;2023-10-09T00:20:36;12.90;1.00
34572;DHT22;20808;48.974;8.452;2023-10-09T00:20:54;13.10;1.00
34572;DHT22;20808;48.974;8.452;2023-10-09T00:21:14;12.60;1.00
34572;DHT22;20808;48.974;8.452;2023-10-09T00:21:35;12.70;1.00
34572;DHT22;20808;48.974;8.452;2023-10-09T00:21:53;12.70;1.00
34572;DHT22;20808;48.974;8.452;2023-10-09T00:22:11;12.70;1.00
34572;DHT22;20808;48.974;8.452;2023-10-09T00:22:35;12.90;1.00
34572;DHT22;20808;48.974;8.452;2023-10-09T00:22:56;12.60;1.00
34572;DHT22;20808;48.974;8.452;2023-10-09T00:23:13;12.60;34.00
34572;DHT22;20808;48.974;8.452;2023-10-09T00:23:31;12.60;99.90
34572;DHT22;20808;48.974;8.452;2023-10-09T00:23:49;12.60;99.90
34572;DHT22;20808;48.974;8.452;2023-10-09T00:24:11;12.40;99.90
34572;DHT22;20808;48.974;8.452;2023-10-09T00:24:37;12.50;99.90
34572;DHT22;20808;48.974;8.452;2023-10-09T00:25:00;12.70;99.90
34572;DHT22;20808;48.974;8.452;2023-10-09T00:25:28;12.40;99.90
34572;DHT22;20808;48.974;8.452;2023-10-09T00:25:48;12.70;99.90
34572;DHT22;20808;48.974;8.452;2023-10-09T00:26:20;12.50;99.90
34572;DHT22;20808;48.974;8.452;2023-10-09T00:26:38;12.50;1.00
34572;DHT22;20808;48.974;8.452;2023-10-09T00:26:59;12.70;99.90
34572;DHT22;20808;48.974;8.452;2023-10-09T00:27:18;12.60;99.90
34572;DHT22;20808;48.974;8.452;2023-10-09T00:27:38;12.70;99.90
34572;DHT22;20808;48.974;8.452;2023-10-09T00:27:58;12.50;99.90
34572;DHT22;20808;48.974;8.452;2023-10-09T00:28:15;12.60;99.90
34572;DHT22;20808;48.974;8.452;2023-10-09T00:28:37;12.40;99.90
34572;DHT22;20808;48.974;8.452;2023-10-09T00:28:56;12.50;99.90
34572;DHT22;20808;48.974;8.452;2023-10-09T00:29:13;12.50;99.90
34572;DHT22;20808;48.974;8.452;2023-10-09T00:29:36;12.70;99.90
34572;DHT22;20808;48.974;8.452;2023-10-09T00:29:57;12.80;99.90
34572;DHT22;20808;48.974;8.452;2023-10-09T00:30:16;12.70;99.90
34572;DHT22;20808;48.974;8.452;2023-10-09T00:30:33;12.70;99.90
34572;DHT22;20808;48.974;8.452;2023-10-09T00:30:51;12.90;99.90
34572;DHT22;20808;48.974;8.452;2023-10-09T00:31:08;12.60;1.00
34572;DHT22;20808;48.974;8.452;2023-10-09T00:31:30;12.60;1.00
34572;DHT22;20808;48.974;8.452;2023-10-09T00:31:50;12.90;1.00
34572;DHT22;20808;48.974;8.452;2023-10-09T00:32:10;12.80;1.00
34572;DHT22;20808;48.974;8.452;2023-10-09T00:32:29;12.80;1.00
34572;DHT22;20808;48.974;8.452;2023-10-09T00:32:48;12.90;28.70
34572;DHT22;20808;48.974;8.452;2023-10-09T00:33:14;12.80;1.00
34572;DHT22;20808;48.974;8.452;2023-10-09T00:33:31;12.80;1.00
34572;DHT22;20808;48.974;8.452;2023-10-09T00:33:47;12.80;1.00
34572;DHT22;20808;48.974;8.452;2023-10-09T00:34:03;13.00;1.00
34572;DHT22;20808;48.974;8.452;2023-10-09T00:34:21;13.10;1.00
34572;DHT22;20808;48.974;8.452;2023-10-09T00:34:39;13.00;1.00
34572;DHT22;20808;48.974;8.452;2023-10-09T00:34:55;13.20;99.90
34572;DHT22;20808;48.974;8.452;2023-10-09T00:35:14;13.20;99.90
34572;DHT22;20808;48.974;8.452;2023-10-09T00:35:44;13.10;99.90
34572;DHT22;20808;48.974;8.452;2023-10-09T00:36:10;13.00;99.90
34572;DHT22;20808;48.974;8.452;2023-10-09T00:36:26;13.10;99.90
34572;DHT22;20808;48.974;8.452;2023-10-09T00:36:43;13.10;99.90
34572;DHT22;20808;48.974;8.452;2023-10-09T00:37:05;13.30;99.90
34572;DHT22;20808;48.974;8.452;2023-10-09T00:37:26;13.00;99.90
34572;DHT22;20808;48.974;8.452;2023-10-09T00:37:49;13.40;1.00
34572;DHT22;20808;48.974;8.452;2023-10-09T00:38:07;13.40;1.00
34572;DHT22;20808;48.974;8.452;2023-10-09T00:38:31;13.60;1.00
34572;DHT22;20808;48.974;8.452;2023-10-09T00:38:50;13.60;1.00
34572;DHT22;20808;48.974;8.452;2023-10-09T00:39:07;13.90;1.00
34572;DHT22;20808;48.974;8.452;2023-10-09T00:39:35;13.60;1.00
34572;DHT22;20808;48.974;8.452;2023-10-09T00:39:58;13.80;1.00
34572;DHT22;20808;48.974;8.452;2023-10-09T00:40:14;13.80;1.00
34572;DHT22;20808;48.974;8.452;2023-10-09T00:40:36;13.80;1.00
34572;DHT22;20808;48.974;8.452;2023-10-09T00:41:01;13.70;1.00
34572;DHT22;20808;48.974;8.452;2023-10-09T00:41:25;13.80;1.00
34572;DHT22;20808;48.974;8.452;2023-10-09T00:41:44;14.00;1.00
34572;DHT22;20808;48.974;8.452;2023-10-09T00:42:00;13.90;99.90
34572;DHT22;20808;48.974;8.452;2023-10-09T00:42:16;14.00;99.90
34572;DHT22;20808;48.974;8.452;2023-10-09T00:42:42;13.80;99.90
34572;DHT22;20808;48.974;8.452;2023-10-09T00:42:59;14.10;99.90
34572;DHT22;20808;48.974;8.452;2023-10-09T00:43:18;13.80;99.90
34572;DHT22;20808;48.974;8.452;2023-10-09T00:43:35;14.10;99.90
34572;DHT22;20808;48.974;8.452;2023-10-09T00:43:52;14.10;99.90
34572;DHT22;20808;48.974;8.452;2023-10-09T00:44:08;13.80;99.90
34572;DHT22;20808;48.974;8.452;2023-10-09T00:44:24;14.10;99.90
34572;DHT22;20808;48.974;8.452;2023-10-09T00:44:41;14.00;99.90
34572;DHT22;20808;48.974;8.452;2023-10-09T00:44:58;14.10;99.90
34572;DHT22;20808;48.974;8.452;2023-10-09T00:45:19;13.80;99.90
34572;DHT22;20808;48.974;8.452;2023-10-09T00:45:43;13.80;99.90
34572;DHT22;20808;48.974;8.452;2023-10-09T00:46:00;13.90;99.90
34572;DHT22;20808;48.974;8.452;2023-10-09T00:46:27;13.90;99.90
34572;DHT22;20808;48.974;8.452;2023-10-09T00:46:43;14.10;99.90
34572;DHT22;20808;48.974;8.452;2023-10-09T00:47:03;14.10;99.90
34572;DHT22;20808;48.974;8.452;2023-10-09T00:47:25;14.00;99.90
34572;DHT22;20808;48.974;8.452;2023-10-09T00:47:49;14.10;99.90
34572;DHT22;20808;48.974;8.452;2023-10-09T00:48:05;13.90;99.90
34572;DHT22;20808;48.974;8.452;2023-10-09T00:48:21;13.90;99.90
34572;DHT22;20808;48.974;8.452;2023-10-09T00:48:47;13.80;99.90
34572;DHT22;20808;48.974;8.452;2023-10-09T00:49:05;13.80;99.90
34572;DHT22;20808;48.974;8.452;2023-10-09T00:49:25;13.90;99.90
34572;DHT22;20808;48.974;8.452;2023-10-09T00:49:44;13.80;99.90
34572;DHT22;20808;48.974;8.452;2023-10-09T00:50:02;13.90;99.90
34572;DHT22;20808;48.974;8.452;2023-10-09T00:50:26;13.90;99.90
34572;DHT22;20808;48.974;8.452;2023-10-09T00:50:42;13.90;99.90
34572;DHT22;20808;48.974;8.452;2023-10-09T00:51:08;13.70;99.90
34572;DHT22;20808;48.974;8.452;2023-10-09T00:51:32;13.70;99.90
34572;DHT22;20808;48.974;8.452;2023-10-09T00:51:51;13.60;99.90
34572;DHT22;20808;48.974;8.452;2023-10-09T00:52:11;13.70;99.90
34572;DHT22;20808;48.974;8.452;2023-10-09T00:52:34;13.70;1.00
34572;DHT22;20808;48.974;8.452;2023-10-09T00:52:54;13.50;1.00
34572;DHT22;20808;48.974;8.452;2023-10-09T00:53:16;13.70;1.00
34572;DHT22;20808;48.974;8.452;2023-10-09T00:53:33;13.60;1.00
34572;DHT22;20808;48.974;8.452;2023-10-09T00:53:51;13.60;1.00
34572;DHT22;20808;48.974;8.452;2023-10-09T00:54:07;13.20;1.00
34572;DHT22;20808;48.974;8.452;2023-10-09T00:54:29;13.60;1.00
34572;DHT22;20808;48.974;8.452;2023-10-09T00:54:56;13.50;1.00
34572;DHT22;20808;48.974;8.452;2023-10-09T00:55:18;13.20;1.00
34572;DHT22;20808;48.974;8.452;2023-10-09T00:55:37;13.40;1.00
34572;DHT22;20808;48.974;8.452;2023-10-09T00:55:59;13.30;1.00
34572;DHT22;20808;48.974;8.452;2023-10-09T00:56:27;13.30;1.00
34572;DHT22;20808;48.974;8.452;2023-10-09T00:56:54;13.20;1.00
34572;DHT22;20808;48.974;8.452;2023-10-09T00:57:14;13.10;1.00
34572;DHT22;20808;48.974;8.452;2023-10-09T00:57:33;13.40;1.00
34572;DHT22;20808;48.974;8.452;2023-10-09T00:58:13;13.40;1.00
34572;DHT22;20808;48.974;8.452;2023-10-09T00:58:30;13.20;1.00
34572;DHT22;20808;48.974;8.452;2023-10-09T00:58:52;13.20;1.00
34572;DHT22;20808;48.974;8.452;2023-10-09T00:59:15;13.40;1.00
34572;DHT22;20808;48.974;8.452;2023-10-09T00:59:35;13.20;1.00
34572;DHT22;20808;48.974;8.452;2023-10-09T00:59:54;13.20;1.00
34572;DHT22;20808;48.974;8.452;2023-10-09T01:00:15;13.30;1.00
34572;DHT22;20808;48.974;8.452;2023-10-09T01:00:47;13.30;1.00
34572;DHT22;20808;48.974;8.452;2023-10-09T01:01:07;12.80;1.00
34572;DHT22;20808;48.974;8.452;2023-10-09T01:01:31;13.00;1.00
34572;DHT22;20808;48.974;8.452;2023-10-09T01:01:50;13.00;1.00
34572;DHT22;20808;48.974;8.452;2023-10-09T01:02:13;13.10;96.20
34572;DHT22;20808;48.974;8.452;2023-10-09T01:02:34;12.90;99.90
34572;DHT22;20808;48.974;8.452;2023-10-09T01:02:51;12.90;99.90
34572;DHT22;20808;48.974;8.452;2023-10-09T01:03:25;13.10;99.90
34572;DHT22;20808;48.974;8.452;2023-10-09T01:03:42;13.10;99.90
34572;DHT22;20808;48.974;8.452;2023-10-09T01:04:01;13.10;1.00
34572;DHT22;20808;48.974;8.452;2023-10-09T01:04:27;13.00;99.90
34572;DHT22;20808;48.974;8.452;2023-10-09T01:04:48;13.10;1.00
34572;DHT22;20808;48.974;8.452;2023-10-09T01:05:05;12.70;1.00
34572;DHT22;20808;48.974;8.452;2023-10-09T01:05:27;13.10;99.90
34572;DHT22;20808;48.974;8.452;2023-10-09T01:05:44;13.00;99.90
34572;DHT22;20808;48.974;8.452;2023-10-09T01:06:07;12.90;99.90
34572;DHT22;20808;48.974;8.452;2023-10-09T01:06:32;13.20;99.90
34572;DHT22;20808;48.974;8.452;2023-10-09T01:06:49;13.30;99.90
34572;DHT22;20808;48.974;8.452;2023-10-09T01:07:19;13.00;75.20
34572;DHT22;20808;48.974;8.452;2023-10-09T01:07:41;13.30;1.00
34572;DHT22;20808;48.974;8.452;2023-10-09T01:07:59;13.20;1.00
34572;DHT22;20808;48.974;8.452;2023-10-09T01:08:15;13.10;1.00
34572;DHT22;20808;48.974;8.452;2023-10-09T01:08:42;13.10;1.00
34572;DHT22;20808;48.974;8.452;2023-10-09T01:09:10;13.00;1.00
34572;DHT22;20808;48.974;8.452;2023-10-09T01:09:26;13.10;92.20
34572;DHT22;20808;48.974;8.452;2023-10-09T01:09:43;13.20;32.10
34572;DHT22;20808;48.974;8.452;2023-10-09T01:10:00;13.10;1.00
34572;DHT22;20808;48.974;8.452;2023-10-09T01:10:44;13.10;1.00
34572;DHT22;20808;48.974;8.452;2023-10-09T01:11:07;13.10;1.00
34572;DHT22;20808;48.974;8.452;2023-10-09T01:11:25;13.30;1.00
34572;DHT22;20808;48.974;8.452;2023-10-09T01:11:45;13.20;1.00
34572;DHT22;20808;48.974;8.452;2023-10-09T01:12:04;13.20;1.00
34572;DHT22;20808;48.974;8.452;2023-10-09T01:12:20;13.20;1.00
34572;DHT22;20808;48.974;8.452;2023-10-09T01:12:37;13.20;1.00
34572;DHT22;20808;48.974;8.452;2023-10-09T01:12:58;13.20;1.00
34572;DHT22;20808;48.974;8.452;2023-10-09T01:13:14;13.30;1.00
34572;DHT22;20808;48.974;8.452;2023-10-09T01:13:33;13.30;1.00
34572;DHT22;20808;48.974;8.452;2023-10-09T01:13:55;13.50;1.00
34572;DHT22;20808;48.974;8.452;2023-10-09T01:14:27;13.40;1.00
34572;DHT22;20808;48.974;8.452;2023-10-09T01:14:44;13.20;1.00
34572;DHT22;20808;48.974;8.452;2023-10-09T01:15:00;13.30;1.00
34572;DHT22;20808;48.974;8.452;2023-10-09T01:15:16;13.30;1.00
34572;DHT22;20808;48.974;8.452;2023-10-09T01:15:51;13.20;1.00
34572;DHT22;20808;48.974;8.452;2023-10-09T01:16:08;13.00;1.00
34572;DHT22;20808;48.974;8.452;2023-10-09T01:16:29;12.80;1.00
34572;DHT22;20808;48.974;8.452;2023-10-09T01:16:46;12.80;1.00
34572;DHT22;20808;48.974;8.452;2023-10-09T01:17:04;13.00;5.60
34572;DHT22;20808;48.974;8.452;2023-10-09T01:17:26;12.80;86.10
34572;DHT22;20808;48.974;8.452;2023-10-09T01:17:51;12.90;53.70
34572;DHT22;20808;48.974;8.452;2023-10-09T01:18:06;13.00;99.90
34572;DHT22;20808;48.974;8.452;2023-10-09T01:18:24;12.80;99.90
34572;DHT22;20808;48.974;8.452;2023-10-09T01:18:49;13.10;99.90
34572;DHT22;20808;48.974;8.452;2023-10-09T01:19:05;12.90;99.90
34572;DHT22;20808;48.974;8.452;2023-10-09T01:19:28;12.90;99.90
34572;DHT22;20808;48.974;8.452;2023-10-09T01:19:46;13.00;99.90
34572;DHT22;20808;48.974;8.452;2023-10-09T01:20:05;12.90;88.40
34572;DHT22;20808;48.974;8.452;2023-10-09T01:20:30;13.00;73.00
34572;DHT22;20808;48.974;8.452;2023-10-09T01:20:56;12.90;99.90
34572;DHT22;20808;48.974;8.452;2023-10-09T01:21:12;12.60;99.90
34572;DHT22;20808;48.974;8.452;2023-10-09T01:21:29;13.00;99.90
34572;DHT22;20808;48.974;8.452;2023-10-09T01:21:47;12.70;99.90
34572;DHT22;20808;48.974;8.452;2023-10-09T01:22:04;13.00;99.90
34572;DHT22;20808;48.974;8.452;2023-10-09T01:22:27;12.50;99.90
34572;DHT22;20808;48.974;8.452;2023-10-09T01:22:43;12.60;99.90
34572;DHT22;20808;48.974;8.452;2023-10-09T01:23:02;12.60;99.90
34572;DHT22;20808;48.974;8.452;2023-10-09T01:23:18;12.80;1.00
34572;DHT22;20808;48.974;8.452;2023-10-09T01:23:35;12.70;1.00
34572;DHT22;20808;48.974;8.452;2023-10-09T01:24:14;12.80;1.00
34572;DHT22;20808;48.974;8.452;2023-10-09T01:24:31;12.70;1.00
34572;DHT22;20808;48.974;8.452;2023-10-09T01:24:50;12.70;1.00
34572;DHT22;20808;48.974;8.452;2023-10-09T01:25:10;12.80;1.00
34572;DHT22;20808;48.974;8.452;2023-10-09T01:25:27;12.60;1.00
34572;DHT22;20808;48.974;8.452;2023-10-09T01:25:57;12.50;1.00
34572;DHT22;20808;48.974;8.452;2023-10-09T01:26:12;12.70;1.00
34572;DHT22;20808;48.974;8.452;2023-10-09T01:26:28;12.80;1.00
34572;DHT22;20808;48.974;8.452;2023-10-09T01:26:49;12.60;1.00
34572;DHT22;20808;48.974;8.452;2023-10-09T01:27:09;12.60;1.00
34572;DHT22;20808;48.974;8.452;2023-10-09T01:27:30;12.50;1.00
34572;DHT22;20808;48.974;8.452;2023-10-09T01:27:47;12.70;1.00
34572;DHT22;20808;48.974;8.452;2023-10-09T01:28:04;12.20;1.00
34572;DHT22;20808;48.974;8.452;2023-10-09T01:28:20;12.50;1.00
34572;DHT22;20808;48.974;8.452;2023-10-09T01:28:36;12.20;1.00
34572;DHT22;20808;48.974;8.452;2023-10-09T01:28:51;12.60;99.90
34572;DHT22;20808;48.974;8.452;2023-10-09T01:29:14;12.40;99.90
34572;DHT22;20808;48.974;8.452;2023-10-09T01:29:32;12.30;99.90
34572;DHT22;20808;48.974;8.452;2023-10-09T01:29:48;12.20;99.90
34572;DHT22;20808;48.974;8.452;2023-10-09T01:30:04;12.30;99.90
34572;DHT22;20808;48.974;8.452;2023-10-09T01:30:21;12.40;99.90
34572;DHT22;20808;48.974;8.452;2023-10-09T01:30:38;12.20;99.90
34572;DHT22;20808;48.974;8.452;2023-10-09T01:30:57;12.10;99.90
34572;DHT22;20808;48.974;8.452;2023-10-09T01:31:12;12.40;99.90
34572;DHT22;20808;48.974;8.452;2023-10-09T01:31:29;12.00;99.90
34572;DHT22;20808;48.974;8.452;2023-10-09T01:31:55;12.40;99.90
34572;DHT22;20808;48.974;8.452;2023-10-09T01:32:11;12.30;99.90
34572;DHT22;20808;48.974;8.452;2023-10-09T01:32:32;12.30;99.90
34572;DHT22;20808;48.974;8.452;2023-10-09T01:32:50;12.10;1.00
34572;DHT22;20808;48.974;8.452;2023-10-09T01:33:08;12.10;1.00
34572;DHT22;20808;48.974;8.452;2023-10-09T01:33:30;12.40;1.00
34572;DHT22;20808;48.974;8.452;2023-10-09T01:33:51;12.30;1.00
34572;DHT22;20808;48.974;8.452;2023-10-09T01:34:09;12.00;1.00
34572;DHT22;20808;48.974;8.452;2023-10-09T01:34:26;12.10;1.00
34572;DHT22;20808;48.974;8.452;2023-10-09T01:34:54;12.30;9.10
34572;DHT22;20808;48.974;8.452;2023-10-09T01:35:09;12.00;1.00
34572;DHT22;20808;48.974;8.452;2023-10-09T01:35:35;11.90;77.40
34572;DHT22;20808;48.974;8.452;2023-10-09T01:35:53;11.90;97.90
34572;DHT22;20808;48.974;8.452;2023-10-09T01:36:14;11.90;99.90
34572;DHT22;20808;48.974;8.452;2023-10-09T01:36:30;12.20;99.90
34572;DHT22;20808;48.974;8.452;2023-10-09T01:36:47;11.80;1.00
34572;DHT22;20808;48.974;8.452;2023-10-09T01:37:04;11.80;1.00
34572;DHT22;20808;48.974;8.452;2023-10-09T01:37:21;11.90;1.00
34572;DHT22;20808;48.974;8.452;2023-10-09T01:37:38;12.20;1.00
34572;DHT22;20808;48.974;8.452;2023-10-09T01:37:58;12.20;1.00
34572;DHT22;20808;48.974;8.452;2023-10-09T01:38:16;12.00;99.90
34572;DHT22;20808;48.974;8.452;2023-10-09T01:38:32;12.20;1.00
34572;DHT22;20808;48.974;8.452;2023-10-09T01:38:56;12.00;1.00
34572;DHT22;20808;48.974;8.452;2023-10-09T01:39:11;12.10;1.00
34572;DHT22;20808;48.974;8.452;2023-10-09T01:39:39;12.30;1.00
34572;DHT22;20808;48.974;8.452;2023-10-09T01:39:58;12.10;1.00
34572;DHT22;20808;48.974;8.452;2023-10-09T01:40:15;12.20;1.00
34572;DHT22;20808;48.974;8.452;2023-10-09T01:40:40;12.10;1.00
34572;DHT22;20808;48.974;8.452;2023-10-09T01:40:56;12.40;1.00
34572;DHT22;20808;48.974;8.452;2023-10-09T01:41:20;12.40;1.00
34572;DHT22;20808;48.974;8.452;2023-10-09T01:41:36;12.40;99.90
34572;DHT22;20808;48.974;8.452;2023-10-09T01:42:01;12.40;99.90
34572;DHT22;20808;48.974;8.452;2023-10-09T01:42:21;12.50;1.00
34572;DHT22;20808;48.974;8.452;2023-10-09T01:42:47;12.50;1.00
34572;DHT22;20808;48.974;8.452;2023-10-09T01:43:03;12.30;1.00
34572;DHT22;20808;48.974;8.452;2023-10-09T01:43:19;12.20;1.00
34572;DHT22;20808;48.974;8.452;2023-10-09T01:43:37;12.10;36.80
34572;DHT22;20808;48.974;8.452;2023-10-09T01:43:54;12.60;1.00
34572;DHT22;20808;48.974;8.452;2023-10-09T01:44:16;12.60;1.00
34572;DHT22;20808;48.974;8.452;2023-10-09T01:44:32;12.50;1.00
34572;DHT22;20808;48.974;8.452;2023-10-09T01:44:50;12.30;1.00
34572;DHT22;20808;48.974;8.452;2023-10-09T01:45:08;12.40;1.00
34572;DHT22;20808;48.974;8.452;2023-10-09T01:45:42;12.50;1.00
34572;DHT22;20808;48.974;8.452;2023-10-09T01:46:01;12.30;99.90
34572;DHT22;20808;48.974;8.452;2023-10-09T01:46:20;12.50;99.90
34572;DHT22;20808;48.974;8.452;2023-10-09T01:46:37;12.60;99.90
34572;DHT22;20808;48.974;8.452;2023-10-09T01:46:53;12.50;99.90
34572;DHT22;20808;48.974;8.452;2023-10-09T01:47:13;12.40;99.90
34572;DHT22;20808;48.974;8.452;2023-10-09T01:47:29;12.70;99.90
34572;DHT22;20808;48.974;8.452;2023-10-09T01:47:47;12.40;99.90
34572;DHT22;20808;48.974;8.452;2023-10-09T01:48:07;12.40;99.90
34572;DHT22;20808;48.974;8.452;2023-10-09T01:48:23;12.50;99.90
34572;DHT22;20808;48.974;8.452;2023-10-09T01:48:40;12.80;99.90
34572;DHT22;20808;48.974;8.452;2023-10-09T01:49:01;12.50;71.60
34572;DHT22;20808;48.974;8.452;2023-10-09T01:49:24;12.60;1.00
34572;DHT22;20808;48.974;8.452;2023-10-09T01:49:46;12.70;1.00
34572;DHT22;20808;48.974;8.452;2023-10-09T01:50:05;12.70;1.00
34572;DHT22;20808;48.974;8.452;2023-10-09T01:50:26;12.90;1.00
34572;DHT22;20808;48.974;8.452;2023-10-09T01:50:42;13.00;1.00
34572;DHT22;20808;48.974;8.452;2023-10-09T01:50:58;12.70;1.00
34572;DHT22;20808;48.974;8.452;2023-10-09T01:51:15;13.00;1.00
34572;DHT22;20808;48.974;8.452;2023-10-09T01:51:33;12.80;1.00
34572;DHT22;20808;48.974;8.452;2023-10-09T01:51:51;12.80;1.00
34572;DHT22;20808;48.974;8.452;2023-10-09T01:52:08;12.70;1.00
34572;DHT22;20808;48.974;8.452;2023-10-09T01:52:24;12.80;1.00
34572;DHT22;20808;48.974;8.452;2023-10-09T01:52:40;12.90;99.90
34572;DHT22;20808;48.974;8.452;2023-10-09T01:52:58;12.90;99.90
34572;DHT22;20808;48.974;8.452;2023-10-09T01:53:17;12.90;99.90
34572;DHT22;20808;48.974;8.452;2023-10-09T01:53:34;12.90;99.90
34572;DHT22;20808;48.974;8.452;2023-10-09T01:53:53;12.80;99.90
34572;DHT22;20808;48.974;8.452;2023-10-09T01:54:10;12.80;99.90
34572;DHT22;20808;48.974;8.452;2023-10-09T01:54:32;12.60;99.90
34572;DHT22;20808;48.974;8.452;2023-10-09T01:54:52;13.00;99.90
34572;DHT22;20808;48.974;8.452;2023-10-09T01:55:09;13.00;99.90
34572;DHT22;20808;48.974;8.452;2023-10-09T01:55:28;12.80;99.90
34572;DHT22;20808;48.974;8.452;2023-10-09T01:55:45;12.80;99.90
34572;DHT22;20808;48.974;8.452;2023-10-09T01:56:08;13.00;99.90
34572;DHT22;20808;48.974;8.452;2023-10-09T01:56:25;13.10;99.90
34572;DHT22;20808;48.974;8.452;2023-10-09T01:56:41;12.80;99.90
34572;DHT22;20808;48.974;8.452;2023-10-09T01:57:01;12.70;99.90
34572;DHT22;20808;48.974;8.452;2023-10-09T01:57:21;13.00;99.90
34572;DHT22;20808;48.974;8.452;2023-10-09T01:57:39;13.10;99.90
34572;DHT22;20808;48.974;8.452;2023-10-09T01:57:55;13.20;99.90
34572;DHT22;20808;48.974;8.452;2023-10-09T01:58:13;12.90;99.90
34572;DHT22;20808;48.974;8.452;2023-10-09T01:58:39;13.10;99.90
34572;DHT22;20808;48.974;8.452;2023-10-09T01:58:56;12.90;99.90
34572;DHT22;20808;48.974;8.452;2023-10-09T01:59:17;13.10;99.90
34572;DHT22;20808;48.974;8.452;2023-10-09T01:59:33;13.00;99.90
34572;DHT22;20808;48.974;8.452;2023-10-09T01:59:53;12.70;99.90
34572;DHT22;20808;48.974;8.452;2023-10-09T02:00:11;12.80;99.90
34572;DHT22;20808;48.974;8.452;2023-10-09T02:00:38;12.80;99.90
34572;DHT22;20808;48.974;8.452;2023-10-09T02:00:59;12.90;99.90
34572;DHT22;20808;48.974;8.452;2023-10-09T02:01:17;12.90;99.90
34572;DHT22;20808;48.974;8.452;2023-10-09T02:01:33;12.90;99.90
34572;DHT22;20808;48.974;8.452;2023-10-09T02:01:49;13.00;99.90
34572;DHT22;20808;48.974;8.452;2023-10-09T02:02:11;13.10;99.90
34572;DHT22;20808;48.974;8.452;2023-10-09T02:02:41;12.80;99.90
34572;DHT22;20808;48.974;8.452;2023-10-09T02:03:00;12.90;1.00
34572;DHT22;20808;48.974;8.452;2023-10-09T02:03:21;12.70;1.00
34572;DHT22;20808;48.974;8.452;2023-10-09T02:03:39;12.90;1.00
34572;DHT22;20808;48.974;8.452;2023-10-09T02:03:57;12.90;1.00
34572;DHT22;20808;48.974;8.452;2023-10-09T02:04:21;12.80;99.90
34572;DHT22;20808;48.974;8.452;2023-10-09T02:04:37;12.80;99.90
34572;DHT22;20808;48.974;8.452;2023-10-09T02:04:57;12.80;99.90
34572;DHT22;20808;48.974;8.452;2023-10-09T02:05:23;12.70;99.90
34572;DHT22;20808;48.974;8.452;2023-10-09T02:05:42;12.80;1.00
34572;DHT22;20808;48.974;8.452;2023-10-09T02:05:57;12.90;1.00
34572;DHT22;20808;48.974;8.452;2023-10-09T02:06:15;12.80;1.00
34572;DHT22;20808;48.974;8.452;2023-10-09T02:06:41;12.80;1.00
34572;DHT22;20808;48.974;8.452;2023-10-09T02:06:57;12.50;1.00
34572;DHT22;20808;48.974;8.452;2023-10-09T02:07:13;12.60;1.00
34572;DHT22;20808;48.974;8.452;2023-10-09T02:07:29;12.80;1.00